createdAt,value
2022-09-10T00:02:21.903Z,79.35
2022-09-10T00:06:27.865Z,79.30
2022-09-10T00:10:31.177Z,78.94
2022-09-10T00:14:36.021Z,78.97
2022-09-10T00:18:40.067Z,79.12
2022-09-10T00:22:43.219Z,79.09
2022-09-10T00:26:46.600Z,78.86
2022-09-10T00:30:52.859Z,78.54
2022-09-10T00:34:56.114Z,78.74
2022-09-10T00:39:02.483Z,78.83
2022-09-10T00:43:07.763Z,79.01
2022-09-10T00:47:15.810Z,78.91
2022-09-10T00:51:19.793Z,78.93
2022-09-10T00:55:23.573Z,78.88
2022-09-10T00:59:28.244Z,78.92
2022-09-10T01:03:33.116Z,79.05
2022-09-10T01:07:36.704Z,79.09
2022-09-10T01:11:54.549Z,79.28
2022-09-10T01:16:10.586Z,79.43
2022-09-10T01:21:04.802Z,79.54
2022-09-10T01:25:20.704Z,79.32
2022-09-10T01:29:31.033Z,79.44
2022-09-10T01:33:39.171Z,79.38
2022-09-10T01:37:46.756Z,79.37
2022-09-10T01:41:50.744Z,79.18
2022-09-10T01:46:13.316Z,79.02
2022-09-10T01:50:24.207Z,79.08
2022-09-10T01:54:40.560Z,79.07
2022-09-10T01:58:45.088Z,79.15
2022-09-10T02:03:22.805Z,78.95
2022-09-10T02:07:29.600Z,79.22
2022-09-10T02:11:44.218Z,79.14
2022-09-10T02:15:49.273Z,79.14
2022-09-10T02:20:05.479Z,79.19
2022-09-10T02:24:10.690Z,79.14
2022-09-10T02:28:13.971Z,79.33
2022-09-10T02:32:18.438Z,79.32
2022-09-10T02:36:26.207Z,79.30
2022-09-10T02:40:31.495Z,79.22
2022-09-10T02:44:34.888Z,79.22
2022-09-10T02:48:38.763Z,79.05
2022-09-10T02:52:46.428Z,79.20
2022-09-10T02:56:49.976Z,79.35
2022-09-10T03:00:53.458Z,79.38
2022-09-10T03:04:56.714Z,79.49
2022-09-10T03:09:02.779Z,79.76
2022-09-10T03:13:06.606Z,79.83
2022-09-10T03:17:09.695Z,79.92
2022-09-10T03:21:15.875Z,80.00
2022-09-10T03:25:22.743Z,80.07
2022-09-10T03:29:26.421Z,80.04
2022-09-10T03:33:29.471Z,80.00
2022-09-10T03:37:32.718Z,79.89
2022-09-10T03:41:39.610Z,80.05
2022-09-10T03:45:45.179Z,79.72
2022-09-10T03:49:50.806Z,79.42
2022-09-10T03:53:54.423Z,79.31
2022-09-10T03:57:59.490Z,79.13
2022-09-10T04:02:03.189Z,79.10
2022-09-10T04:06:10.211Z,78.96
2022-09-10T04:10:13.380Z,78.95
2022-09-10T04:14:19.565Z,79.25
2022-09-10T04:18:24.024Z,79.33
2022-09-10T04:22:28.389Z,79.36
2022-09-10T04:26:32.958Z,79.34
2022-09-10T04:30:37.799Z,79.09
2022-09-10T04:34:41.165Z,79.17
2022-09-10T04:38:45.255Z,79.05
2022-09-10T04:42:51.023Z,79.10
2022-09-10T04:46:55.481Z,78.89
2022-09-10T04:51:15.761Z,78.81
2022-09-10T04:55:22.030Z,78.58
2022-09-10T04:59:25.614Z,78.19
2022-09-10T05:03:30.244Z,78.41
2022-09-10T05:07:34.656Z,78.35
2022-09-10T05:11:39.061Z,77.87
2022-09-10T05:15:43.379Z,78.09
2022-09-10T05:19:47.963Z,77.96
2022-09-10T05:23:51.502Z,77.97
2022-09-10T05:27:55.218Z,78.01
2022-09-10T05:31:59.183Z,77.75
2022-09-10T05:36:05.238Z,77.67
2022-09-10T05:40:10.823Z,77.58
2022-09-10T05:44:15.246Z,77.29
2022-09-10T05:48:18.400Z,77.04
2022-09-10T05:52:24.196Z,77.07
2022-09-10T05:56:28.239Z,77.07
2022-09-10T06:00:32.412Z,76.79
2022-09-10T06:04:37.507Z,76.94
2022-09-10T06:08:42.312Z,76.44
2022-09-10T06:12:52.034Z,76.35
2022-09-10T06:16:55.884Z,76.30
2022-09-10T06:21:05.866Z,76.09
2022-09-10T06:25:10.976Z,75.59
2022-09-10T06:29:14.714Z,75.26
2022-09-10T06:33:19.620Z,75.23
2022-09-10T06:37:23.713Z,75.16
2022-09-10T06:41:31.101Z,74.71
2022-09-10T06:45:40.681Z,74.05
2022-09-10T06:49:56.027Z,73.14
2022-09-10T06:53:59.288Z,73.36
2022-09-10T06:58:04.165Z,73.43
2022-09-10T07:02:08.002Z,72.66
2022-09-10T07:06:15.371Z,72.25
2022-09-10T07:10:20.363Z,71.38
2022-09-10T07:14:25.601Z,71.69
2022-09-10T07:18:31.044Z,71.10
2022-09-10T07:22:34.759Z,70.80
2022-09-10T07:26:42.671Z,70.36
2022-09-10T07:30:49.060Z,69.76
2022-09-10T07:34:55.964Z,69.43
2022-09-10T07:39:01.999Z,68.06
2022-09-10T07:43:08.276Z,68.15
2022-09-10T07:47:12.903Z,68.00
2022-09-10T07:51:19.257Z,67.46
2022-09-10T07:55:24.436Z,67.08
2022-09-10T07:59:28.184Z,66.81
2022-09-10T08:03:37.723Z,65.50
2022-09-10T08:07:42.427Z,64.89
2022-09-10T08:11:45.646Z,65.18
2022-09-10T08:15:52.017Z,64.74
2022-09-10T08:19:57.515Z,64.48
2022-09-10T08:24:02.711Z,64.18
2022-09-10T08:28:08.627Z,64.06
2022-09-10T08:32:13.120Z,63.64
2022-09-10T08:36:19.575Z,63.03
2022-09-10T08:40:23.714Z,62.44
2022-09-10T08:44:37.078Z,62.44
2022-09-10T08:48:41.143Z,61.11
2022-09-10T08:52:51.323Z,61.52
2022-09-10T08:57:01.544Z,59.41
2022-09-10T09:01:06.269Z,60.07
2022-09-10T09:05:17.187Z,59.56
2022-09-10T09:09:23.616Z,58.99
2022-09-10T09:13:59.880Z,58.74
2022-09-10T09:18:20.495Z,58.33
2022-09-10T09:22:39.315Z,58.79
2022-09-10T09:26:47.216Z,58.45
2022-09-10T09:30:53.560Z,58.52
2022-09-10T09:35:03.471Z,58.40
2022-09-10T09:39:17.147Z,58.08
2022-09-10T09:43:35.705Z,58.18
2022-09-10T09:47:39.116Z,58.33
2022-09-10T09:51:43.120Z,57.88
2022-09-10T09:55:49.879Z,57.20
2022-09-10T09:59:55.303Z,57.40
2022-09-10T10:04:02.975Z,57.15
2022-09-10T10:08:06.147Z,57.26
2022-09-10T10:12:20.584Z,57.88
2022-09-10T10:16:35.619Z,57.18
2022-09-10T10:20:41.445Z,56.60
2022-09-10T10:24:45.384Z,56.65
2022-09-10T10:28:49.695Z,56.08
2022-09-10T10:32:57.179Z,55.47
2022-09-10T10:37:08.590Z,55.98
2022-09-10T10:41:50.923Z,55.03
2022-09-10T10:46:02.090Z,54.53
2022-09-10T10:50:21.436Z,53.98
2022-09-10T10:54:38.614Z,53.91
2022-09-10T10:59:00.967Z,54.12
2022-09-10T11:03:11.699Z,53.79
2022-09-10T11:07:23.196Z,53.76
2022-09-10T11:11:33.823Z,53.80
2022-09-10T11:15:43.181Z,54.11
2022-09-10T11:20:11.221Z,53.36
2022-09-10T11:24:24.571Z,53.63
2022-09-10T11:28:32.176Z,53.06
2022-09-10T11:32:40.507Z,52.53
2022-09-10T11:36:49.282Z,51.25
2022-09-10T11:41:05.484Z,51.19
2022-09-10T11:45:20.108Z,49.87
2022-09-10T11:49:26.968Z,51.19
2022-09-10T11:53:31.139Z,51.43
2022-09-10T11:57:43.182Z,51.11
2022-09-10T12:02:16.461Z,51.78
2022-09-10T12:06:23.836Z,52.95
2022-09-10T12:10:33.542Z,51.92
2022-09-10T12:14:40.939Z,52.95
2022-09-10T12:18:46.847Z,53.61
2022-09-10T12:22:55.684Z,54.32
2022-09-10T12:27:00.753Z,54.95
2022-09-10T12:31:05.297Z,54.97
2022-09-10T12:35:47.988Z,54.15
2022-09-10T12:40:29.790Z,54.29
2022-09-10T12:44:53.970Z,53.54
2022-09-10T12:49:13.622Z,53.47
2022-09-10T12:53:53.255Z,53.32
2022-09-10T12:58:07.305Z,52.56
2022-09-10T13:02:23.143Z,51.58
2022-09-10T13:06:38.807Z,51.93
2022-09-10T13:10:44.371Z,51.99
2022-09-10T13:14:52.847Z,52.42
2022-09-10T13:19:33.511Z,52.59
2022-09-10T13:23:51.258Z,52.73
2022-09-10T13:27:54.868Z,52.64
2022-09-10T13:32:02.967Z,52.46
2022-09-10T13:36:13.082Z,52.23
2022-09-10T13:41:01.386Z,51.11
2022-09-10T13:45:23.643Z,51.93
2022-09-10T13:49:36.709Z,50.33
2022-09-10T13:53:43.422Z,50.98
2022-09-10T13:57:49.983Z,51.16
2022-09-10T14:01:54.887Z,51.04
2022-09-10T14:06:07.857Z,50.49
2022-09-10T14:10:21.500Z,50.94
2022-09-10T14:14:29.275Z,50.37
2022-09-10T14:18:39.483Z,53.05
2022-09-10T14:22:42.807Z,55.02
2022-09-10T14:27:05.930Z,56.12
2022-09-10T14:31:30.066Z,57.28
2022-09-10T14:35:39.334Z,58.07
2022-09-10T14:39:46.699Z,59.03
2022-09-10T14:43:50.741Z,59.71
2022-09-10T14:47:55.384Z,60.74
2022-09-10T14:51:59.516Z,61.39
2022-09-10T14:56:02.663Z,62.15
2022-09-10T15:00:06.528Z,63.10
2022-09-10T15:04:14.883Z,63.77
2022-09-10T15:08:18.172Z,64.70
2022-09-10T15:12:25.196Z,64.59
2022-09-10T15:16:29.491Z,64.55
2022-09-10T15:20:33.876Z,64.50
2022-09-10T15:24:52.736Z,65.21
2022-09-10T15:29:00.401Z,65.90
2022-09-10T15:33:04.137Z,66.53
2022-09-10T15:37:09.193Z,67.13
2022-09-10T15:41:13.874Z,68.02
2022-09-10T15:45:17.374Z,68.40
2022-09-10T15:49:20.899Z,68.90
2022-09-10T15:53:25.483Z,68.91
2022-09-10T15:57:31.001Z,69.06
2022-09-10T16:01:36.904Z,69.73
2022-09-10T16:05:40.122Z,69.85
2022-09-10T16:09:44.604Z,69.80
2022-09-10T16:13:47.997Z,69.93
2022-09-10T16:17:51.236Z,70.31
2022-09-10T16:21:54.409Z,69.68
2022-09-10T16:25:59.000Z,68.66
2022-09-10T16:30:01.975Z,67.70
2022-09-10T16:34:07.517Z,67.64
2022-09-10T16:38:10.535Z,66.50
2022-09-10T16:42:14.906Z,65.99
2022-09-10T16:46:18.920Z,65.74
2022-09-10T16:50:22.246Z,65.44
2022-09-10T16:54:26.688Z,64.54
2022-09-10T16:58:35.662Z,64.36
2022-09-10T17:02:40.681Z,63.27
2022-09-10T17:06:43.968Z,63.01
2022-09-10T17:10:48.535Z,62.81
2022-09-10T17:14:53.206Z,63.07
2022-09-10T17:18:58.271Z,62.56
2022-09-10T17:23:01.712Z,62.33
2022-09-10T17:27:04.972Z,62.62
2022-09-10T17:31:09.574Z,62.79
2022-09-10T17:35:13.699Z,62.65
2022-09-10T17:39:16.923Z,62.11
2022-09-10T17:43:22.292Z,60.82
2022-09-10T17:47:29.671Z,60.26
2022-09-10T17:51:35.235Z,60.45
2022-09-10T17:55:38.436Z,60.22
2022-09-10T17:59:44.537Z,60.57
2022-09-10T18:03:49.172Z,60.12
2022-09-10T18:07:52.363Z,60.34
2022-09-10T18:11:56.692Z,60.54
2022-09-10T18:15:59.906Z,60.48
2022-09-10T18:20:04.809Z,60.66
2022-09-10T18:24:11.388Z,60.74
2022-09-10T18:28:14.722Z,61.02
2022-09-10T18:32:18.199Z,60.87
2022-09-10T18:36:23.407Z,61.03
2022-09-10T18:40:26.582Z,61.36
2022-09-10T18:44:33.179Z,61.24
2022-09-10T18:48:36.719Z,61.30
2022-09-10T18:52:41.578Z,61.46
2022-09-10T18:56:45.301Z,61.66
2022-09-10T19:00:48.299Z,61.82
2022-09-10T19:05:10.148Z,61.47
2022-09-10T19:09:17.108Z,61.25
2022-09-10T19:13:20.295Z,61.60
2022-09-10T19:17:23.929Z,61.81
2022-09-10T19:21:28.870Z,61.76
2022-09-10T19:25:33.463Z,61.80
2022-09-10T19:29:36.789Z,61.90
2022-09-10T19:33:40.248Z,62.27
2022-09-10T19:37:43.331Z,62.65
2022-09-10T19:41:48.053Z,62.58
2022-09-10T19:45:56.113Z,62.93
2022-09-10T19:49:59.267Z,62.69
2022-09-10T19:54:03.378Z,62.89
2022-09-10T19:58:08.063Z,62.93
2022-09-10T20:02:11.663Z,63.07
2022-09-10T20:06:18.385Z,63.01
2022-09-10T20:10:21.655Z,62.88
2022-09-10T20:14:26.043Z,63.01
2022-09-10T20:18:30.336Z,63.32
2022-09-10T20:22:38.207Z,63.09
2022-09-10T20:26:43.850Z,63.24
2022-09-10T20:30:48.266Z,63.22
2022-09-10T20:34:51.520Z,63.41
2022-09-10T20:38:55.678Z,63.38
2022-09-10T20:42:58.773Z,63.47
2022-09-10T20:47:03.967Z,63.69
2022-09-10T20:51:08.869Z,63.75
2022-09-10T20:55:11.851Z,63.88
2022-09-10T20:59:16.421Z,64.04
2022-09-10T21:03:21.327Z,64.10
2022-09-10T21:07:24.395Z,64.40
2022-09-10T21:11:30.687Z,64.43
2022-09-10T21:15:33.710Z,64.43
2022-09-10T21:19:38.069Z,64.42
2022-09-10T21:23:44.960Z,64.28
2022-09-10T21:27:48.153Z,64.81
2022-09-10T21:31:54.525Z,64.58
2022-09-10T21:36:03.319Z,64.94
2022-09-10T21:40:08.636Z,65.14
2022-09-10T21:44:14.164Z,65.14
2022-09-10T21:48:17.229Z,65.25
2022-09-10T21:52:25.202Z,65.50
2022-09-10T21:56:29.779Z,65.53
2022-09-10T22:00:32.847Z,65.95
2022-09-10T22:04:36.228Z,65.74
2022-09-10T22:08:43.117Z,65.95
2022-09-10T22:12:46.397Z,65.88
2022-09-10T22:16:49.956Z,66.08
2022-09-10T22:21:00.975Z,66.14
2022-09-10T22:25:06.208Z,66.18
2022-09-10T22:29:09.668Z,66.33
2022-09-10T22:33:14.667Z,66.33
2022-09-10T22:37:17.957Z,66.58
2022-09-10T22:41:23.056Z,66.39
2022-09-10T22:45:26.212Z,66.53
2022-09-10T22:49:29.293Z,66.64
2022-09-10T22:53:32.496Z,66.50
2022-09-10T22:57:38.572Z,66.74
2022-09-10T23:01:43.273Z,66.50
2022-09-10T23:05:46.691Z,66.61
2022-09-10T23:09:49.814Z,66.61
2022-09-10T23:13:56.939Z,66.30
2022-09-10T23:18:00.494Z,66.26
2022-09-10T23:22:03.750Z,66.43
2022-09-10T23:26:08.885Z,66.28
2022-09-10T23:30:16.109Z,66.41
2022-09-10T23:34:20.988Z,66.58
2022-09-10T23:38:24.745Z,66.76
2022-09-10T23:42:27.823Z,66.75
2022-09-10T23:46:32.662Z,66.90
2022-09-10T23:50:35.849Z,66.99
2022-09-10T23:54:38.867Z,66.83
2022-09-10T23:58:42.091Z,66.93
